Welcome to the New NWS' Forecast!
Most changes are behind the scenes, but click here for differences you might notice.

Terminal Aerodrome Forecast (TAF)

Issued by National Weather Service (NWS)

                            
653 
FTUS42 KMFL 151120
TAFMIA
TAF
KMIA 151120Z 1512/1618 VRB03KT P6SM SCT250
     FM151600 17005KT P6SM SCT250
     FM160000 VRB03KT P6SM SCT250=